Time;durP1;ratioP1;P1;durP2;ratioP2;P2;SDS_P1;SDS_P2;PMS_P1;PMS_P2;Temp;Humidity;BMP_temperature;BMP_pressure;BME280_temperature;BME280_humidity;BME280_pressure;Samples;Min_cycle;Max_cycle;Signal;HPM_P1;HPM_P2
2021/06/08 00:00:11;;;;;;;5.80;5.22;;;;;;;22.00;52.51;102150.00;5000530;28;20030;-50
2021/06/08 00:02:36;;;;;;;4.95;4.50;;;;;;;21.90;52.39;102148.47;5001454;28;20100;-50
2021/06/08 00:05:02;;;;;;;5.30;4.80;;;;;;;21.91;52.67;102147.38;5003484;28;20045;-51
2021/06/08 00:07:27;;;;;;;6.35;4.20;;;;;;;21.83;52.08;102148.94;5003608;28;20457;-50
2021/06/08 00:09:52;;;;;;;4.78;4.38;;;;;;;21.81;52.02;102151.19;5005538;28;20034;-50
2021/06/08 00:12:18;;;;;;;5.90;4.88;;;;;;;21.82;52.37;102147.38;5005111;28;20050;-51
2021/06/08 00:14:43;;;;;;;5.65;4.70;;;;;;;21.79;52.41;102144.50;5006975;28;20508;-52
2021/06/08 00:17:08;;;;;;;5.05;4.65;;;;;;;21.75;52.67;102146.25;5006404;28;20744;-49
2021/06/08 00:19:34;;;;;;;4.90;4.47;;;;;;;21.73;52.23;102143.09;5005470;28;20168;-50
2021/06/08 00:21:59;;;;;;;4.80;4.30;;;;;;;21.71;51.98;102142.63;5006750;28;20041;-51
2021/06/08 00:24:24;;;;;;;4.53;4.13;;;;;;;21.61;52.61;102143.78;5006404;28;20407;-48
2021/06/08 00:26:50;;;;;;;5.20;4.55;;;;;;;21.62;52.78;102139.97;4988781;28;20172;-48
2021/06/08 00:29:15;;;;;;;4.63;4.32;;;;;;;21.59;52.53;102142.50;5006841;28;20033;-51
2021/06/08 00:31:40;;;;;;;4.78;4.32;;;;;;;21.51;52.63;102149.53;5005717;28;20042;-50
2021/06/08 00:34:06;;;;;;;4.85;4.45;;;;;;;21.45;52.65;102148.13;5006254;28;20848;-51
2021/06/08 00:36:31;;;;;;;7.78;4.75;;;;;;;21.45;52.90;102142.72;5006328;28;20037;-50
2021/06/08 00:38:56;;;;;;;4.70;4.20;;;;;;;21.50;52.94;102149.88;5004800;28;20042;-50
2021/06/08 00:41:32;;;;;;;5.53;4.40;;;;;;;21.47;52.11;102147.81;5006260;28;20423;-47
2021/06/08 00:44:01;;;;;;;4.90;4.28;;;;;;;21.38;52.54;102149.75;5005072;28;20045;-51
2021/06/08 00:46:26;;;;;;;5.18;4.03;;;;;;;21.37;52.30;102150.84;5004625;28;20045;-51
2021/06/08 00:48:52;;;;;;;6.70;4.38;;;;;;;21.37;52.50;102148.94;5006199;28;20038;-47
2021/06/08 00:51:17;;;;;;;6.60;4.57;;;;;;;21.33;52.53;102144.50;5005571;28;20048;-48
2021/06/08 00:53:42;;;;;;;6.47;4.40;;;;;;;21.23;52.82;102141.03;5005763;28;20046;-46
2021/06/08 00:56:08;;;;;;;4.35;4.00;;;;;;;21.24;53.04;102147.22;5005564;28;20046;-51
2021/06/08 00:58:33;;;;;;;5.25;4.43;;;;;;;21.23;52.86;102142.94;4987987;28;20060;-45
2021/06/08 01:00:58;;;;;;;4.43;4.13;;;;;;;21.14;52.50;102140.25;5006126;28;20046;-48
2021/06/08 01:03:26;;;;;;;5.43;4.50;;;;;;;21.13;52.71;102138.66;5006025;28;20047;-49
2021/06/08 01:05:52;;;;;;;4.22;3.92;;;;;;;21.11;52.88;102142.81;5020753;28;20504;-48
2021/06/08 01:08:17;;;;;;;4.47;4.13;;;;;;;21.09;53.00;102136.94;5003909;28;20045;-47
2021/06/08 01:10:42;;;;;;;4.90;3.90;;;;;;;21.06;52.61;102137.53;5006053;28;20450;-51
2021/06/08 01:13:08;;;;;;;4.60;4.20;;;;;;;21.16;52.83;102146.13;5003734;28;20049;-48
2021/06/08 01:15:33;;;;;;;4.05;3.75;;;;;;;21.09;52.77;102145.81;5004468;28;20048;-46
2021/06/08 01:17:59;;;;;;;6.55;4.22;;;;;;;21.04;52.68;102143.25;5005214;28;20107;-47
2021/06/08 01:20:25;;;;;;;5.30;4.25;;;;;;;21.00;52.56;102144.22;5005217;28;20046;-49
2021/06/08 01:22:50;;;;;;;4.47;4.10;;;;;;;20.96;52.65;102140.53;5004870;28;20095;-50
2021/06/08 01:25:16;;;;;;;4.75;4.20;;;;;;;20.90;52.79;102141.84;4987885;28;20571;-48
2021/06/08 01:27:41;;;;;;;5.60;4.50;;;;;;;20.86;53.01;102143.59;5005380;28;20069;-47
2021/06/08 01:30:07;;;;;;;4.50;4.20;;;;;;;20.90;52.75;102139.16;4987559;28;20559;-52
2021/06/08 01:32:32;;;;;;;4.80;4.35;;;;;;;20.80;53.37;102151.06;4996274;28;20125;-50
2021/06/08 01:34:58;;;;;;;4.63;4.32;;;;;;;20.80;53.35;102147.56;4987328;28;20255;-50
2021/06/08 01:37:23;;;;;;;4.13;3.83;;;;;;;20.83;53.13;102136.91;4995516;28;20034;-52
2021/06/08 01:39:49;;;;;;;4.90;4.55;;;;;;;20.79;53.36;102138.69;5004983;28;20404;-49
2021/06/08 01:42:14;;;;;;;4.80;4.40;;;;;;;20.81;52.89;102139.16;4985662;28;20038;-50
2021/06/08 01:44:41;;;;;;;6.55;4.10;;;;;;;20.72;52.85;102135.63;5004983;28;20041;-51
2021/06/08 01:47:06;;;;;;;4.25;3.95;;;;;;;20.65;53.30;102133.44;5003066;28;20459;-50
2021/06/08 01:49:32;;;;;;;5.10;4.70;;;;;;;20.73;52.94;102134.53;5003271;28;20046;-51
2021/06/08 01:52:13;;;;;;;5.03;4.38;;;;;;;20.64;53.19;102134.53;5001313;28;20060;-48
2021/06/08 01:54:55;;;;;;;5.38;4.88;;;;;;;20.60;53.43;102133.56;4985877;28;20053;-47
2021/06/08 01:57:44;;;;;;;5.82;4.60;;;;;;;20.59;53.56;102140.09;4986973;28;20863;-47
2021/06/08 02:00:37;;;;;;;4.82;4.53;;;;;;;20.57;53.27;102138.81;4998875;28;20042;-47
2021/06/08 02:03:19;;;;;;;4.95;4.50;;;;;;;20.53;53.55;102144.06;5001848;28;20216;-46
2021/06/08 02:05:50;;;;;;;5.47;4.78;;;;;;;20.52;53.28;102142.47;4986716;28;20038;-46
2021/06/08 02:08:42;;;;;;;5.68;5.18;;;;;;;20.51;53.39;102142.78;5000964;28;20044;-46
2021/06/08 02:11:22;;;;;;;5.40;5.00;;;;;;;20.48;53.51;102140.72;5002997;28;20044;-51
2021/06/08 02:14:15;;;;;;;5.88;5.38;;;;;;;20.43;53.60;102138.16;5003869;28;20077;-47
2021/06/08 02:16:46;;;;;;;17.75;5.78;;;;;;;20.34;53.65;102135.44;5002228;28;20141;-45
2021/06/08 02:19:12;;;;;;;6.47;5.63;;;;;;;20.39;53.76;102137.19;5002390;28;20041;-46
2021/06/08 02:21:41;;;;;;;6.68;5.38;;;;;;;20.36;53.82;102137.81;4986994;28;20263;-47
2021/06/08 02:24:10;;;;;;;5.90;5.25;;;;;;;20.40;53.84;102144.19;5002952;28;20034;-49
2021/06/08 02:26:36;;;;;;;9.48;5.47;;;;;;;20.35;53.90;102141.66;5005068;28;20037;-45
2021/06/08 02:29:02;;;;;;;6.30;5.72;;;;;;;20.26;53.90;102141.63;4985792;28;20096;-46
2021/06/08 02:31:27;;;;;;;8.10;6.45;;;;;;;20.21;54.05;102140.97;5002708;28;20060;-46
2021/06/08 02:33:52;;;;;;;5.75;5.35;;;;;;;20.25;54.01;102141.94;4986934;28;20050;-47
2021/06/08 02:36:18;;;;;;;6.47;5.97;;;;;;;20.23;53.88;102144.94;5002370;28;20459;-47
2021/06/08 02:38:43;;;;;;;6.40;5.97;;;;;;;20.22;53.89;102143.31;5003799;28;20048;-48
2021/06/08 02:41:08;;;;;;;6.40;5.80;;;;;;;20.26;54.04;102149.72;4986843;28;20042;-49
2021/06/08 02:43:37;;;;;;;6.93;6.32;;;;;;;20.20;53.90;102155.56;5004233;28;20602;-46
2021/06/08 02:46:02;;;;;;;6.05;5.65;;;;;;;20.17;54.30;102154.28;5002216;28;20042;-47
2021/06/08 02:48:28;;;;;;;8.00;5.80;;;;;;;20.07;54.07;102157.28;5002821;28;20037;-49
2021/06/08 02:50:54;;;;;;;7.38;6.28;;;;;;;20.15;54.12;102161.09;4986753;28;20056;-49
2021/06/08 02:53:21;;;;;;;7.85;6.47;;;;;;;20.09;53.97;102155.84;5003147;28;20036;-49
2021/06/08 02:55:46;;;;;;;7.55;5.97;;;;;;;20.04;54.31;102152.50;5004091;28;20045;-46
2021/06/08 02:58:12;;;;;;;8.82;6.45;;;;;;;20.01;54.47;102162.03;5002021;28;20076;-49
2021/06/08 03:00:39;;;;;;;7.05;6.45;;;;;;;19.97;54.48;102157.56;4993035;28;20054;-48
2021/06/08 03:03:05;;;;;;;7.80;7.13;;;;;;;19.91;54.05;102159.59;4986100;28;20030;-50
2021/06/08 03:05:32;;;;;;;10.00;7.10;;;;;;;19.87;54.50;102164.03;4986518;28;20131;-52
2021/06/08 03:08:01;;;;;;;7.28;6.65;;;;;;;19.87;54.46;102163.22;5001996;28;20064;-50
2021/06/08 03:10:28;;;;;;;7.57;7.00;;;;;;;19.82;54.48;102156.06;4984985;28;20065;-48
2021/06/08 03:12:55;;;;;;;7.10;6.60;;;;;;;19.82;54.71;102161.47;5002593;28;20038;-50
2021/06/08 03:15:33;;;;;;;8.70;7.85;;;;;;;19.82;54.77;102168.75;4985859;28;20038;-51
2021/06/08 03:17:58;;;;;;;7.97;7.18;;;;;;;19.82;54.71;102166.06;4986668;28;20046;-47
2021/06/08 03:20:38;;;;;;;11.05;6.95;;;;;;;19.76;54.52;102160.00;5002140;28;20048;-49
2021/06/08 03:23:05;;;;;;;9.80;7.75;;;;;;;19.76;54.83;102164.59;5001761;28;20515;-50
2021/06/08 03:25:31;;;;;;;8.48;7.72;;;;;;;19.77;54.91;102161.59;4986328;28;20033;-49
2021/06/08 03:27:56;;;;;;;8.30;7.20;;;;;;;19.65;54.93;102163.28;5001885;28;20034;-50
2021/06/08 03:30:22;;;;;;;8.13;7.53;;;;;;;19.77;54.48;102152.72;5001967;28;20050;-48
2021/06/08 03:32:49;;;;;;;8.27;7.53;;;;;;;19.67;54.79;102156.47;5001304;28;20437;-50
2021/06/08 03:35:15;;;;;;;8.73;7.85;;;;;;;19.65;54.78;102152.50;5002406;28;20030;-49
2021/06/08 03:37:40;;;;;;;8.48;7.85;;;;;;;19.67;54.82;102158.38;5001281;28;20129;-49
2021/06/08 03:40:06;;;;;;;10.25;8.30;;;;;;;19.65;54.87;102157.88;5001810;28;20413;-49
2021/06/08 03:42:31;;;;;;;8.80;8.00;;;;;;;19.67;54.79;102155.69;5007176;28;20040;-49
2021/06/08 03:44:56;;;;;;;8.07;7.40;;;;;;;19.76;54.81;102156.50;4989779;28;20895;-49
2021/06/08 03:47:22;;;;;;;8.40;7.70;;;;;;;19.61;54.88;102148.84;4989131;28;20287;-47
2021/06/08 03:49:47;;;;;;;9.88;8.98;;;;;;;19.60;54.83;102150.72;5007510;28;20046;-50
2021/06/08 03:52:12;;;;;;;10.02;8.48;;;;;;;19.58;54.87;102150.25;5006964;28;20049;-47
2021/06/08 03:54:38;;;;;;;9.45;8.60;;;;;;;19.55;55.18;102147.38;5005075;28;20038;-49
2021/06/08 03:57:03;;;;;;;9.57;8.77;;;;;;;19.62;54.93;102145.81;5007207;28;20435;-48
2021/06/08 03:59:29;;;;;;;10.00;8.98;;;;;;;19.59;55.06;102145.66;5002244;28;20038;-50
2021/06/08 04:01:54;;;;;;;9.43;8.68;;;;;;;19.61;55.00;102144.25;4973551;28;20046;-50
2021/06/08 04:04:20;;;;;;;9.73;8.77;;;;;;;19.57;55.04;102154.03;4988113;28;20586;-49
2021/06/08 04:06:46;;;;;;;10.10;9.10;;;;;;;19.50;55.03;102153.69;5006272;28;20069;-49
2021/06/08 04:09:12;;;;;;;9.98;9.15;;;;;;;19.52;55.24;102159.56;5005335;28;20074;-47
2021/06/08 04:11:37;;;;;;;9.82;8.98;;;;;;;19.49;55.03;102152.91;5007205;28;20045;-49
2021/06/08 04:14:03;;;;;;;10.82;9.57;;;;;;;19.50;55.19;102159.09;5006991;28;20150;-49
2021/06/08 04:16:28;;;;;;;10.35;9.30;;;;;;;19.49;55.13;102144.81;5006911;28;20105;-48
2021/06/08 04:18:54;;;;;;;10.90;9.82;;;;;;;19.51;55.28;102156.06;5007156;28;20037;-48
2021/06/08 04:21:23;;;;;;;10.40;9.40;;;;;;;19.48;55.19;102154.00;4987577;28;20050;-45
2021/06/08 04:23:58;;;;;;;10.05;9.15;;;;;;;19.43;55.49;102156.81;5006461;28;20057;-50
2021/06/08 04:26:24;;;;;;;14.50;9.43;;;;;;;19.49;55.56;102155.59;5006507;28;20037;-50
2021/06/08 04:28:50;;;;;;;10.85;9.95;;;;;;;19.60;55.30;102156.13;5005836;28;20038;-50
2021/06/08 04:31:16;;;;;;;11.55;10.35;;;;;;;19.62;55.05;102153.13;5005215;28;20108;-48
2021/06/08 04:33:43;;;;;;;10.98;9.95;;;;;;;19.66;55.48;102160.28;5005473;28;20117;-48
2021/06/08 04:36:08;;;;;;;11.07;10.07;;;;;;;19.77;55.55;102156.22;5004621;28;20085;-49
2021/06/08 04:38:37;;;;;;;12.15;10.80;;;;;;;19.73;55.34;102163.31;5004801;28;20112;-48
2021/06/08 04:41:02;;;;;;;12.05;10.77;;;;;;;19.74;55.25;102159.53;5003545;28;20237;-47
2021/06/08 04:43:27;;;;;;;11.23;10.13;;;;;;;19.72;55.46;102159.06;5004235;28;20117;-46
2021/06/08 04:45:53;;;;;;;12.40;11.35;;;;;;;19.78;55.29;102162.41;5006272;28;20056;-46
2021/06/08 04:48:22;;;;;;;12.15;11.10;;;;;;;19.76;55.42;102159.19;5004996;28;20120;-48
2021/06/08 04:50:50;;;;;;;13.10;11.70;;;;;;;19.80;55.20;102160.19;5006502;28;20125;-46
2021/06/08 04:53:15;;;;;;;12.40;11.20;;;;;;;19.79;55.27;102162.09;5005402;28;20045;-50
2021/06/08 04:55:41;;;;;;;12.15;11.07;;;;;;;19.79;55.34;102161.28;4987312;28;20436;-49
2021/06/08 04:58:06;;;;;;;14.85;11.40;;;;;;;19.78;55.35;102157.78;5004985;28;20053;-47
2021/06/08 05:00:42;;;;;;;11.45;10.50;;;;;;;19.76;55.22;102160.00;4999411;28;20064;-48
2021/06/08 05:03:12;;;;;;;12.13;11.00;;;;;;;19.79;55.73;102154.00;5003219;28;20030;-49
2021/06/08 05:05:43;;;;;;;12.80;11.48;;;;;;;19.82;56.29;102161.47;4987597;28;20042;-47
2021/06/08 05:08:09;;;;;;;12.05;10.98;;;;;;;19.84;56.08;102163.84;4998399;28;20084;-49
2021/06/08 05:10:44;;;;;;;14.27;11.35;;;;;;;19.90;56.05;102159.91;4985014;28;20117;-50
2021/06/08 05:13:09;;;;;;;12.80;10.90;;;;;;;19.97;56.00;102157.56;4998572;28;20787;-50
2021/06/08 05:15:35;;;;;;;11.70;10.80;;;;;;;20.03;55.60;102162.50;5000840;28;20034;-50
2021/06/08 05:18:01;;;;;;;13.63;10.88;;;;;;;20.04;55.58;102158.69;4979600;28;20057;-48
2021/06/08 05:20:26;;;;;;;11.63;10.40;;;;;;;20.01;55.76;102167.41;4998868;28;20049;-47
2021/06/08 05:22:54;;;;;;;13.05;10.48;;;;;;;20.04;55.74;102166.78;4999401;28;20042;-50
2021/06/08 05:25:19;;;;;;;11.95;10.40;;;;;;;20.09;55.68;102168.53;4983178;28;20080;-50
2021/06/08 05:27:44;;;;;;;11.73;10.30;;;;;;;20.07;55.81;102165.38;4984034;28;20046;-50
2021/06/08 05:30:10;;;;;;;12.52;9.52;;;;;;;20.13;55.72;102172.22;5000543;28;20041;-48
2021/06/08 05:32:39;;;;;;;13.82;10.55;;;;;;;20.10;55.76;102165.56;5017107;28;20065;-50
2021/06/08 05:35:06;;;;;;;20.02;10.73;;;;;;;20.19;55.75;102170.19;4983149;28;20049;-51
2021/06/08 05:37:36;;;;;;;28.77;13.10;;;;;;;20.20;55.88;102172.53;5001581;28;20049;-50
2021/06/08 05:40:01;;;;;;;50.85;18.73;;;;;;;20.24;55.75;102164.63;4998253;28;20050;-50
2021/06/08 05:42:26;;;;;;;49.30;19.63;;;;;;;20.23;56.10;102168.44;4983380;28;20041;-53
2021/06/08 05:44:52;;;;;;;48.97;20.38;;;;;;;20.23;56.17;102171.13;5001314;28;20044;-49
2021/06/08 05:47:17;;;;;;;37.70;18.83;;;;;;;20.23;55.89;102171.91;5001623;28;20033;-51
2021/06/08 05:49:43;;;;;;;37.78;16.98;;;;;;;20.20;56.26;102174.44;5000677;28;20048;-49
2021/06/08 05:52:10;;;;;;;31.73;14.32;;;;;;;20.22;55.78;102170.31;4999028;28;20115;-48
2021/06/08 05:54:35;;;;;;;25.75;12.65;;;;;;;20.20;55.24;102172.53;5013133;28;20038;-47
2021/06/08 05:57:01;;;;;;;22.40;11.32;;;;;;;20.19;54.99;102176.34;4998134;28;20040;-50
2021/06/08 05:59:26;;;;;;;20.95;10.07;;;;;;;20.16;55.14;102168.09;4983425;28;20133;-51
2021/06/08 06:01:51;;;;;;;15.40;9.20;;;;;;;20.15;54.99;102170.00;4967032;28;20050;-50
2021/06/08 06:04:17;;;;;;;12.38;8.80;;;;;;;20.18;54.79;102173.97;4998480;28;20042;-47
2021/06/08 06:06:43;;;;;;;14.70;8.63;;;;;;;20.17;54.79;102177.78;5001337;28;20522;-55
2021/06/08 06:09:09;;;;;;;18.45;10.65;;;;;;;20.22;55.11;102177.66;5000973;28;20045;-49
2021/06/08 06:11:35;;;;;;;16.83;12.15;;;;;;;20.25;55.18;102180.53;4997329;28;20045;-51
2021/06/08 06:14:02;;;;;;;24.02;15.15;;;;;;;20.28;54.91;102177.19;5001319;28;20041;-48
2021/06/08 06:16:30;;;;;;;26.52;15.32;;;;;;;20.33;54.84;102182.44;5002066;28;20416;-51
2021/06/08 06:18:55;;;;;;;29.13;20.52;;;;;;;20.34;54.86;102184.06;5001534;28;20042;-50
2021/06/08 06:21:20;;;;;;;24.80;16.65;;;;;;;20.33;54.88;102187.84;5004986;28;20676;-50
2021/06/08 06:23:46;;;;;;;20.23;15.35;;;;;;;20.36;54.88;102195.31;4984231;28;20041;-50
2021/06/08 06:26:11;;;;;;;18.27;9.90;;;;;;;20.40;55.14;102187.41;5011143;28;20506;-50
2021/06/08 06:28:39;;;;;;;10.10;8.30;;;;;;;20.40;54.62;102190.09;5001624;28;20042;-50
2021/06/08 06:31:06;;;;;;;12.35;7.05;;;;;;;20.42;54.04;102174.38;4983002;28;20131;-47
2021/06/08 06:33:31;;;;;;;7.97;5.75;;;;;;;20.44;54.08;102185.66;4998838;28;20045;-50
2021/06/08 06:35:57;;;;;;;8.93;4.60;;;;;;;20.45;54.19;102185.34;4998797;28;20046;-48
2021/06/08 06:38:23;;;;;;;8.02;4.32;;;;;;;20.51;53.52;102181.41;4982693;28;20041;-50
2021/06/08 06:40:48;;;;;;;8.30;3.53;;;;;;;20.47;53.58;102185.03;4983113;28;20044;-48
2021/06/08 06:43:20;;;;;;;4.57;3.40;;;;;;;20.47;53.51;102183.13;4998730;28;20045;-49
2021/06/08 06:45:45;;;;;;;3.95;2.95;;;;;;;20.52;53.27;102188.38;4982380;28;20123;-49
2021/06/08 06:48:14;;;;;;;4.30;3.10;;;;;;;20.55;53.03;102185.03;4999698;28;20520;-46
2021/06/08 06:50:40;;;;;;;3.28;2.75;;;;;;;20.54;52.78;102186.16;4999323;28;20451;-46
2021/06/08 06:53:05;;;;;;;3.40;2.22;;;;;;;20.53;52.89;102192.66;4998781;28;20068;-48
2021/06/08 06:55:32;;;;;;;2.67;2.47;;;;;;;20.56;52.87;102193.94;4985326;28;20054;-47
2021/06/08 06:57:57;;;;;;;5.75;2.40;;;;;;;20.57;52.97;102192.84;5001949;28;20096;-48
2021/06/08 07:00:23;;;;;;;4.55;2.20;;;;;;;20.64;53.01;102188.56;5013181;28;20084;-52
2021/06/08 07:02:49;;;;;;;3.65;2.30;;;;;;;20.78;52.91;102190.31;5001345;28;20548;-54
2021/06/08 07:05:15;;;;;;;2.30;2.10;;;;;;;20.85;52.88;102196.03;5001924;28;20033;-58
2021/06/08 07:07:42;;;;;;;9.38;2.50;;;;;;;20.80;52.99;102197.00;5002090;28;20041;-52
2021/06/08 07:10:11;;;;;;;19.50;3.00;;;;;;;20.93;52.75;102192.56;5016799;28;20519;-53
2021/06/08 07:12:39;;;;;;;29.35;4.18;;;;;;;20.97;52.34;102197.00;5001722;28;20042;-52
2021/06/08 07:15:05;;;;;;;52.38;4.68;;;;;;;21.04;52.64;102191.91;5003487;28;20123;-51
2021/06/08 07:17:30;;;;;;;55.28;4.13;;;;;;;21.08;52.21;102192.91;5017122;28;20711;-52
2021/06/08 07:19:56;;;;;;;66.28;4.40;;;;;;;21.18;52.07;102195.25;5001879;28;20056;-51
2021/06/08 07:22:22;;;;;;;55.60;4.20;;;;;;;21.20;52.13;102195.72;5001975;28;20055;-52
2021/06/08 07:24:47;;;;;;;36.20;4.00;;;;;;;21.13;52.30;102197.34;4984593;28;20046;-52
2021/06/08 07:27:13;;;;;;;40.00;4.07;;;;;;;21.23;52.54;102191.59;4985441;28;20888;-52
2021/06/08 07:29:40;;;;;;;10.45;3.33;;;;;;;21.22;52.53;102190.81;5001935;28;20048;-53
2021/06/08 07:32:07;;;;;;;12.80;3.03;;;;;;;21.20;52.03;102190.31;4984978;28;20181;-52
2021/06/08 07:34:47;;;;;;;6.95;2.78;;;;;;;21.35;51.69;102188.25;4986015;28;20549;-53
2021/06/08 07:37:16;;;;;;;9.77;3.05;;;;;;;21.37;52.20;102194.13;5002559;28;20498;-49
2021/06/08 07:39:47;;;;;;;5.38;3.03;;;;;;;21.37;52.11;102186.81;5001157;28;20037;-51
2021/06/08 07:42:17;;;;;;;4.45;3.53;;;;;;;21.39;52.08;102186.50;4977198;28;20034;-53
2021/06/08 07:44:58;;;;;;;3.17;3.00;;;;;;;21.41;52.25;102187.75;5001610;28;20520;-55
2021/06/08 07:47:23;;;;;;;14.25;3.40;;;;;;;21.37;52.18;102197.63;5002301;28;20034;-54
2021/06/08 07:49:49;;;;;;;9.40;3.17;;;;;;;21.26;52.97;102193.66;5004087;28;20099;-54
2021/06/08 07:52:15;;;;;;;13.52;3.05;;;;;;;21.31;52.89;102190.81;5002132;28;20026;-56
2021/06/08 07:54:41;;;;;;;14.40;3.33;;;;;;;21.44;52.75;102189.03;5002258;28;20053;-60
2021/06/08 07:57:06;;;;;;;7.43;3.25;;;;;;;21.45;52.70;102190.63;5003658;28;20419;-58
2021/06/08 07:59:32;;;;;;;7.55;3.25;;;;;;;21.44;52.92;102181.72;5001407;28;20038;-58
2021/06/08 08:01:57;;;;;;;6.45;3.05;;;;;;;21.55;52.53;102184.88;4986053;28;20046;-57
2021/06/08 08:04:23;;;;;;;7.80;3.42;;;;;;;21.35;53.10;102186.34;4985341;28;20041;-58
2021/06/08 08:06:52;;;;;;;5.68;3.20;;;;;;;21.29;53.22;102179.50;5003723;28;20537;-55
2021/06/08 08:09:18;;;;;;;10.75;3.88;;;;;;;21.41;52.82;102174.25;4985783;28;20267;-54
2021/06/08 08:11:47;;;;;;;5.43;3.38;;;;;;;21.50;52.96;102179.63;5002707;28;20511;-57
2021/06/08 08:14:16;;;;;;;7.85;3.42;;;;;;;21.49;52.89;102169.91;4985029;28;20061;-56
2021/06/08 08:16:50;;;;;;;4.97;3.33;;;;;;;21.59;52.46;102180.38;5000874;28;20320;-53
2021/06/08 08:19:16;;;;;;;9.23;3.55;;;;;;;21.49;53.03;102181.53;4984687;28;20064;-51
2021/06/08 08:21:42;;;;;;;7.30;3.60;;;;;;;21.70;52.67;102182.44;5001573;28;20125;-52
2021/06/08 08:24:08;;;;;;;9.25;3.53;;;;;;;21.76;52.30;102174.91;5002759;28;20033;-50
2021/06/08 08:26:33;;;;;;;8.20;3.38;;;;;;;21.63;52.84;102173.22;5003239;28;20129;-49
2021/06/08 08:29:00;;;;;;;5.85;3.72;;;;;;;21.69;52.70;102170.00;5006176;28;20452;-55
2021/06/08 08:31:29;;;;;;;3.53;3.22;;;;;;;21.73;51.78;102156.63;4989572;28;20559;-58
2021/06/08 08:33:55;;;;;;;3.88;3.17;;;;;;;22.03;51.03;102157.47;5007141;28;20586;-59
2021/06/08 08:36:20;;;;;;;3.35;3.13;;;;;;;22.07;51.36;102159.22;5004650;28;21463;-58
2021/06/08 08:38:46;;;;;;;2.92;2.83;;;;;;;22.08;50.78;102149.16;5004399;28;20100;-53
2021/06/08 08:41:11;;;;;;;3.60;3.30;;;;;;;22.24;50.65;102150.22;5005905;28;20408;-53
2021/06/08 08:43:38;;;;;;;3.92;3.28;;;;;;;22.35;50.75;102137.84;5005718;28;20060;-53
2021/06/08 08:46:03;;;;;;;5.97;3.28;;;;;;;22.44;50.53;102141.28;5004765;28;20121;-50
2021/06/08 08:48:30;;;;;;;3.83;3.10;;;;;;;22.56;50.50;102133.25;5005965;28;20034;-53
2021/06/08 08:50:55;;;;;;;3.88;3.33;;;;;;;22.64;50.58;102129.72;5004867;28;20515;-56
2021/06/08 08:53:21;;;;;;;6.28;3.50;;;;;;;22.71;51.81;102129.97;5006285;28;20033;-56
2021/06/08 08:55:46;;;;;;;4.22;3.50;;;;;;;22.80;50.46;102138.03;4989331;28;20046;-56
2021/06/08 08:58:12;;;;;;;3.50;3.05;;;;;;;22.85;51.11;102133.19;5002927;28;20084;-57
2021/06/08 09:00:38;;;;;;;5.30;3.33;;;;;;;22.89;51.43;102127.91;5004578;28;20372;-56
2021/06/08 09:03:04;;;;;;;4.72;3.05;;;;;;;22.95;50.73;102127.34;5005539;28;20520;-57
2021/06/08 09:05:38;;;;;;;4.25;3.17;;;;;;;23.03;50.32;102137.31;5004475;28;20038;-56
2021/06/08 09:08:04;;;;;;;7.47;3.00;;;;;;;23.07;50.13;102136.66;5002203;28;20119;-55
2021/06/08 09:10:30;;;;;;;3.90;2.88;;;;;;;23.16;51.40;102131.94;5003164;28;20030;-57
2021/06/08 09:12:56;;;;;;;3.85;2.80;;;;;;;23.16;50.21;102124.59;5005230;28;20045;-55
2021/06/08 09:15:21;;;;;;;5.35;2.80;;;;;;;23.13;50.60;102124.47;4985998;28;20053;-56
2021/06/08 09:17:46;;;;;;;5.90;3.03;;;;;;;23.12;51.09;102128.31;5005116;28;20046;-55
2021/06/08 09:20:14;;;;;;;3.33;3.00;;;;;;;23.19;50.39;102128.56;5001665;28;20047;-53
2021/06/08 09:23:08;;;;;;;3.80;3.10;;;;;;;23.30;50.22;102133.22;5004995;28;20084;-57
2021/06/08 09:25:36;;;;;;;3.97;3.03;;;;;;;23.40;51.10;102124.69;5005307;28;20057;-57
2021/06/08 09:28:21;;;;;;;2.95;2.75;;;;;;;23.41;50.44;102122.78;5004915;28;20451;-57
2021/06/08 09:30:59;;;;;;;3.05;2.53;;;;;;;23.42;49.76;102119.69;5005989;28;20037;-57
2021/06/08 09:33:29;;;;;;;4.53;2.88;;;;;;;23.39;50.22;102123.09;5004761;28;20038;-59
2021/06/08 09:35:57;;;;;;;14.55;3.15;;;;;;;23.32;50.03;102122.03;4990898;28;20046;-59
2021/06/08 09:38:33;;;;;;;8.90;3.00;;;;;;;23.33;49.92;102118.97;4999811;28;20037;-59
2021/06/08 09:41:11;;;;;;;4.75;3.25;;;;;;;23.28;50.56;102127.31;5002280;28;20046;-58
2021/06/08 09:43:53;;;;;;;4.28;3.30;;;;;;;23.36;50.16;102117.53;5002313;28;20145;-58
2021/06/08 09:46:19;;;;;;;7.03;3.08;;;;;;;23.34;50.08;102119.78;5004039;28;20081;-57
2021/06/08 09:48:55;;;;;;;5.45;2.95;;;;;;;23.42;50.31;102127.03;5004018;28;20609;-56
2021/06/08 09:51:22;;;;;;;3.42;3.03;;;;;;;23.76;49.97;102113.06;5001392;28;20034;-56
2021/06/08 09:53:47;;;;;;;3.53;2.60;;;;;;;23.72;48.94;102111.34;5001078;28;20050;-55
2021/06/08 09:56:14;;;;;;;3.08;2.88;;;;;;;23.57;49.46;102110.13;5001870;28;20561;-57
2021/06/08 09:58:44;;;;;;;7.03;3.58;;;;;;;23.56;49.23;102116.66;4984280;28;20463;-56
2021/06/08 10:01:20;;;;;;;3.95;2.90;;;;;;;23.52;49.34;102110.34;5003619;28;20084;-55
2021/06/08 10:03:46;;;;;;;3.92;2.88;;;;;;;23.53;49.09;102111.91;5003606;28;20050;-54
2021/06/08 10:06:13;;;;;;;3.05;2.85;;;;;;;23.59;48.78;102122.22;5000674;28;20034;-56
2021/06/08 10:08:49;;;;;;;3.83;2.90;;;;;;;23.58;49.19;102109.78;4978007;28;20480;-55
2021/06/08 10:11:16;;;;;;;2.88;2.50;;;;;;;23.61;49.15;102115.66;5000976;28;20041;-55
2021/06/08 10:13:41;;;;;;;3.10;2.80;;;;;;;23.63;48.80;102114.19;4999904;28;20066;-56
2021/06/08 10:16:12;;;;;;;2.70;2.53;;;;;;;23.72;48.58;102114.88;5002245;28;20239;-58
2021/06/08 10:18:45;;;;;;;3.10;2.60;;;;;;;23.76;48.14;102104.94;4999242;28;20538;-57
2021/06/08 10:21:10;;;;;;;4.63;2.78;;;;;;;23.86;48.56;102103.66;5003590;28;20042;-57
2021/06/08 10:23:36;;;;;;;2.80;2.60;;;;;;;24.04;48.08;102096.88;5004337;28;20107;-55
2021/06/08 10:26:08;;;;;;;3.15;2.97;;;;;;;23.98;48.03;102104.47;5001921;28;20128;-51
2021/06/08 10:28:34;;;;;;;3.67;2.70;;;;;;;24.03;48.58;102101.50;5003278;28;20084;-54
2021/06/08 10:30:59;;;;;;;2.60;2.40;;;;;;;24.08;47.65;102095.03;5000973;28;20045;-50
2021/06/08 10:33:25;;;;;;;3.95;2.63;;;;;;;24.11;48.64;102095.19;5002912;28;20407;-52
2021/06/08 10:35:51;;;;;;;2.65;2.55;;;;;;;24.17;47.60;102098.47;5003278;28;20041;-55
2021/06/08 10:38:16;;;;;;;2.80;2.60;;;;;;;24.09;47.91;102097.47;5001658;28;20034;-57
2021/06/08 10:40:42;;;;;;;2.97;2.78;;;;;;;24.20;47.78;102097.78;5003274;28;20249;-57
2021/06/08 10:43:15;;;;;;;2.58;2.38;;;;;;;24.16;47.69;102097.66;4985553;28;20155;-57
2021/06/08 10:45:40;;;;;;;2.80;2.60;;;;;;;24.30;47.31;102094.56;5001455;28;20041;-56
2021/06/08 10:48:18;;;;;;;2.50;2.40;;;;;;;24.28;47.65;102101.50;5001802;28;20096;-53
2021/06/08 10:50:48;;;;;;;2.55;2.35;;;;;;;24.31;47.38;102098.09;4975836;28;20042;-54
2021/06/08 10:53:36;;;;;;;2.63;2.45;;;;;;;24.47;48.15;102099.75;5002941;28;20045;-50
2021/06/08 10:56:02;;;;;;;2.72;2.60;;;;;;;24.39;46.90;102092.53;4997106;28;20045;-49
2021/06/08 10:58:51;;;;;;;2.83;2.63;;;;;;;24.43;47.33;102092.59;5002560;28;20223;-52
2021/06/08 11:01:37;;;;;;;2.83;2.63;;;;;;;24.43;47.70;102084.44;5002716;28;20049;-52
2021/06/08 11:04:07;;;;;;;4.57;2.83;;;;;;;24.46;47.27;102094.63;5004391;28;20060;-57
2021/06/08 11:06:56;;;;;;;2.53;2.35;;;;;;;24.41;47.43;102081.31;5004976;28;20058;-58
2021/06/08 11:09:24;;;;;;;2.72;2.53;;;;;;;24.48;47.45;102095.09;5004826;28;20042;-55
2021/06/08 11:11:54;;;;;;;2.67;2.58;;;;;;;24.56;47.40;102077.88;5007446;28;20041;-56
2021/06/08 11:14:44;;;;;;;3.13;2.83;;;;;;;24.53;47.14;102078.56;5005512;28;20038;-55
2021/06/08 11:17:14;;;;;;;3.00;2.80;;;;;;;24.54;47.08;102088.25;5002523;28;20069;-57
2021/06/08 11:20:05;;;;;;;2.88;2.30;;;;;;;24.56;46.86;102083.31;5002783;28;20076;-57
2021/06/08 11:22:33;;;;;;;2.70;2.50;;;;;;;24.61;46.90;102074.91;4998930;28;20286;-56
2021/06/08 11:24:59;;;;;;;2.60;2.50;;;;;;;24.63;46.59;102086.19;5004202;28;20257;-55